Thank you for visiting the home of New Brunswick Weather Observations at Rutgers Gardens. Here you can find weather data dating back to January 2011. Older data is available offline only at this time. The current month's data is shown below, or select a month and year to view a monthly dataset.

Select Monthly Report:

Click here to see the decadal trend!
May 2017 data to date.
Obs (units) Temperature (°F) Precipitation (in) Snowfall (in) Heating Degree Days (Base 65°F) Cooling Degree Days (Base 70°F) 4" Sod Soil Temp (°F) Special
Date (Y-M-D) Max Min Mean Norm Dep Cum Dep Day Month Year Day Month Season Depth Day Month Season Day Month Season Max Min Comments
2017-05-01 65 50 58 56 2 2 0.00 0.00 15.93 0.0 0 23 0 7 7 4376 0 0 12 60 59
2017-05-02 81 52 67 56 11 13 0.00 0.00 15.93 0.0 0 23 0 0 7 4376 0 0 12 60 59
2017-05-03 77 55 66 56 10 23 0.00 0.00 15.93 0.0 0 23 0 0 7 4376 0 0 12 61 60
2017-05-04 67 38 53 57 -4 19 0.00 0.00 15.93 0.0 0 23 0 12 19 4388 0 0 12 60 58
2017-05-05 63 51 57 57 0 19 0.04 0.04 15.97 0.0 0 23 0 8 27 4396 0 0 12 59 59 Light/ModerateRain
2017-05-06 64 54 59 57 2 21 1.72 1.76 17.69 0.0 0 23 0 6 33 4402 0 0 12 59 58
2017-05-07 69 49 59 58 1 22 0.00 1.76 17.69 0.0 0 23 0 6 39 4408 0 0 12 59 58
2017-05-08 57 39 48 58 -10 12 0.00 1.76 17.69 0.0 0 23 0 17 56 4425 0 0 12 58 57
2017-05-09 62 41 52 58 -6 6 0 1.76 17.69 0 0 23 0 13 69 4438 0 0 12 58 57
2017-05-10 66 45 56 59 -3 3 0.00 1.76 17.69 0.0 0 23 0 9 78 4447 0 0 12 58 55
2017-05-11 67 42 55 59 -4 -1 0.00 1.76 17.69 0.0 0 23 0 10 88 4457 0 0 12 59 57
2017-05-12 62 41 52 59 -7 -8 0.00 1.76 17.69 0.0 0 23 0 13 101 4470 0 0 12 57 56
2017-05-13 63 49 56 60 -4 -12 0.37 2.13 18.06 0.0 0 23 0 9 110 4479 0 0 12 57 56
2017-05-14 52 45 49 60 -11 -23 1.81 3.94 19.87 0.0 0 23 0 16 126 4495 0 0 12 57 55
2017-05-15 69 50 60 60 0 -23 0.30 4.24 20.17 0.0 0 23 0 5 131 4500 0 0 12 56 55
2017-05-16 71 50 61 61 0 -23 0.00 4.24 20.17 0.0 0 23 0 4 135 4504 0 0 12 58 56
2017-05-17 81 50 66 61 5 -18 0.00 4.24 20.17 0.0 0 23 0 0 135 4504 0 0 12 60 57
2017-05-18 92 65 79 61 18 0 0.00 4.24 20.17 0.0 0 23 0 0 135 4504 9 9 21 63 59
2017-05-19 94 73 84 62 22 22 0.00 4.24 20.17 0.0 0 23 0 0 135 4504 14 23 35 66 63
2017-05-20 92 59 76 62 14 36 0.00 4.24 20.17 0.0 0 23 0 0 135 4504 6 29 41 69 66
2017-05-21 63 43 53 62 -9 27 0.11 4.35 20.28 0.0 0 23 0 12 147 4516 0 29 41 66 62 AbundantDew
2017-05-22 69 52 61 63 -2 25 0.03 4.38 20.31 0.0 0 23 0 3 150 4519 0 29 41 63 62
2017-05-23 63 54 59 63 -4 21 0.59 4.97 20.9 0.0 0 23 0 6 156 4525 0 29 41 63 62
2017-05-24 68 55 62 63 -1 20 0.04 5.01 20.94 0.0 0 23 0 3 159 4528 0 29 41 63 62
2017-05-25 70 55 63 64 -1 19 0.18 5.19 21.12 0.0 0 23 0 2 161 4530 0 29 41 62 62 Rain
2017-05-26 60 55 58 64 -6 13 1.62 6.81 22.74 0.0 0 23 0 7 168 4537 0 29 41 63 61
2017-05-27 77 55 66 64 2 15 0.00 6.81 22.74 0 0 23 0 0 168 4537 0 29 41 62 61
2017-05-28 76 54 65 64 1 16 T 6.81 22.74 0.0 0 23 0 0 168 4537 0 29 41 64 62 DenseFog